Scio, OR (97374)

6:03 AM PDT on September 01, 2015 (GMT -0700)
Shimanek Bridge, Scio | | Change Station
CLOSE
Current Station
Personal Weather Station
Location: Scio, OR
Elevation: 364 ft
Nearby Weather Stations

Elev 364 ft 44.71 °N, 122.81 °W | Updated 21 seconds ago

Overcast
Overcast
58.8 °F
Feels Like 58.8 °F
N
0.0
Wind Variable Wind from North
Gusts 0.0 mph

Today
High -- | Low -- °F
--% Chance of Precip.
Yesterday
High -- | Low -- °F
Precip. -- in
6:33 AM 7:48 PM
Waning Gibbous, 89% visible
Pressure 29.95 in
Visibility 10.0 miles
Clouds Overcast 5000 ft
Dew Point 56 °F
Humidity 91%
Rainfall 0.00 in
Snow Depth Not available.
UV 0.0 out of 12
Pollen 2.60 out of 12
Air Quality Not available.
Flu Activity Not available.
METAR KSLE 011256Z AUTO 15003KT 10SM OVC050 16/12 A2995 RMK AO2 SLP140 T01560122
Pressure 29.95 in
Visibility 10.0 miles
Clouds Overcast 5000 ft
Dew Point 56 °F
Humidity 91%
Rainfall 0.00 in
Snow Depth Not available.
UV 0.0 out of 12
Pollen 2.60 out of 12
Air Quality Not available.
Flu Activity Not available.
METAR KSLE 011256Z AUTO 15003KT 10SM OVC050 16/12 A2995 RMK AO2 SLP140 T01560122

10-Day Weather Forecast

×

Almanac

Astronomy

Sep. 01, 2015 Rise Set
Actual Time
Civil Twilight
Nautical Twilight
Astronomical Twilight
Moon
Length of Visible Light
Length of Day
Tomorrow will be .
, % of the Moon is Illuminated

Today's Extremes

State Highs State Lows

Community

WunderPhotos

Upload Photos

1,851,513 photos uploaded!

WunderBlogs® & News

Nearby

Air Quality

  Air Quality AQ Index Pollutant
Not available.

Snow Depth

Station Depth Elevation

Earthquake Activity

City Distance Mag. Time & Date
Minimum magnitude displayed is 2.5.

Coastal Water Temperatures

Place Temperature

Stations

Nearby Weather Stations

Station Location Temp. Windchill Dew Point Humidity Wind Precip. Elev Updated Type